sensor_id;sensor_type;location;lat;lon;timestamp;P1;durP1;ratioP1;P2;durP2;ratioP2
21412;SDS011;10867;45.084;5.732;2023-08-17T00:00:26;5.30;;;3.15;;
21412;SDS011;10867;45.084;5.732;2023-08-17T00:02:52;4.20;;;2.95;;
21412;SDS011;10867;45.084;5.732;2023-08-17T00:05:18;5.47;;;3.23;;
21412;SDS011;10867;45.084;5.732;2023-08-17T00:07:45;6.57;;;2.95;;
21412;SDS011;10867;45.084;5.732;2023-08-17T00:10:11;6.60;;;3.25;;
21412;SDS011;10867;45.084;5.732;2023-08-17T00:12:37;7.05;;;3.00;;
21412;SDS011;10867;45.084;5.732;2023-08-17T00:15:03;5.72;;;3.17;;
21412;SDS011;10867;45.084;5.732;2023-08-17T00:17:30;5.75;;;2.95;;
21412;SDS011;10867;45.084;5.732;2023-08-17T00:19:56;5.65;;;3.10;;
21412;SDS011;10867;45.084;5.732;2023-08-17T00:22:22;4.72;;;3.00;;
21412;SDS011;10867;45.084;5.732;2023-08-17T00:24:48;5.97;;;3.13;;
21412;SDS011;10867;45.084;5.732;2023-08-17T00:27:14;5.28;;;3.30;;
21412;SDS011;10867;45.084;5.732;2023-08-17T00:29:40;6.32;;;3.30;;
21412;SDS011;10867;45.084;5.732;2023-08-17T00:32:07;4.97;;;3.00;;
21412;SDS011;10867;45.084;5.732;2023-08-17T00:34:33;6.85;;;3.40;;
21412;SDS011;10867;45.084;5.732;2023-08-17T00:36:59;4.80;;;3.33;;
21412;SDS011;10867;45.084;5.732;2023-08-17T00:39:25;6.45;;;3.45;;
21412;SDS011;10867;45.084;5.732;2023-08-17T00:41:52;5.53;;;3.22;;
21412;SDS011;10867;45.084;5.732;2023-08-17T00:44:18;5.90;;;3.28;;
21412;SDS011;10867;45.084;5.732;2023-08-17T00:46:45;6.53;;;3.45;;
21412;SDS011;10867;45.084;5.732;2023-08-17T00:49:11;5.90;;;3.70;;
21412;SDS011;10867;45.084;5.732;2023-08-17T00:51:37;6.40;;;3.15;;
21412;SDS011;10867;45.084;5.732;2023-08-17T00:54:04;5.22;;;3.30;;
21412;SDS011;10867;45.084;5.732;2023-08-17T00:56:30;8.38;;;3.60;;
21412;SDS011;10867;45.084;5.732;2023-08-17T00:58:56;5.45;;;3.33;;
21412;SDS011;10867;45.084;5.732;2023-08-17T01:01:23;5.60;;;3.25;;
21412;SDS011;10867;45.084;5.732;2023-08-17T01:03:49;5.47;;;3.05;;
21412;SDS011;10867;45.084;5.732;2023-08-17T01:06:15;5.72;;;3.30;;
21412;SDS011;10867;45.084;5.732;2023-08-17T01:08:41;6.63;;;3.28;;
21412;SDS011;10867;45.084;5.732;2023-08-17T01:13:55;6.10;;;3.40;;
21412;SDS011;10867;45.084;5.732;2023-08-17T01:16:27;4.95;;;2.90;;
21412;SDS011;10867;45.084;5.732;2023-08-17T01:18:55;6.90;;;3.40;;
21412;SDS011;10867;45.084;5.732;2023-08-17T01:21:23;5.32;;;3.15;;
21412;SDS011;10867;45.084;5.732;2023-08-17T01:23:50;4.40;;;3.10;;
21412;SDS011;10867;45.084;5.732;2023-08-17T01:26:16;6.20;;;3.30;;
21412;SDS011;10867;45.084;5.732;2023-08-17T01:28:43;6.20;;;3.15;;
21412;SDS011;10867;45.084;5.732;2023-08-17T01:31:20;5.32;;;3.05;;
21412;SDS011;10867;45.084;5.732;2023-08-17T01:33:48;5.28;;;3.20;;
21412;SDS011;10867;45.084;5.732;2023-08-17T01:36:26;4.23;;;3.00;;
21412;SDS011;10867;45.084;5.732;2023-08-17T01:38:55;4.78;;;3.40;;
21412;SDS011;10867;45.084;5.732;2023-08-17T01:41:22;4.57;;;3.30;;
21412;SDS011;10867;45.084;5.732;2023-08-17T01:43:48;5.30;;;3.15;;
21412;SDS011;10867;45.084;5.732;2023-08-17T01:46:16;7.80;;;3.20;;
21412;SDS011;10867;45.084;5.732;2023-08-17T01:48:45;5.78;;;3.20;;
21412;SDS011;10867;45.084;5.732;2023-08-17T01:51:16;6.78;;;3.22;;
21412;SDS011;10867;45.084;5.732;2023-08-17T01:53:43;6.20;;;3.30;;
21412;SDS011;10867;45.084;5.732;2023-08-17T01:56:09;4.72;;;2.92;;
21412;SDS011;10867;45.084;5.732;2023-08-17T01:58:35;4.55;;;3.05;;
21412;SDS011;10867;45.084;5.732;2023-08-17T02:01:01;6.18;;;3.30;;
21412;SDS011;10867;45.084;5.732;2023-08-17T02:03:27;5.88;;;2.88;;
21412;SDS011;10867;45.084;5.732;2023-08-17T02:05:57;6.30;;;3.38;;
21412;SDS011;10867;45.084;5.732;2023-08-17T02:08:24;6.30;;;3.58;;
21412;SDS011;10867;45.084;5.732;2023-08-17T02:10:50;7.00;;;3.90;;
21412;SDS011;10867;45.084;5.732;2023-08-17T02:13:16;6.73;;;4.30;;
21412;SDS011;10867;45.084;5.732;2023-08-17T02:15:42;6.00;;;3.53;;
21412;SDS011;10867;45.084;5.732;2023-08-17T02:18:08;8.40;;;4.20;;
21412;SDS011;10867;45.084;5.732;2023-08-17T02:20:34;6.28;;;4.20;;
21412;SDS011;10867;45.084;5.732;2023-08-17T02:23:01;5.17;;;3.97;;
21412;SDS011;10867;45.084;5.732;2023-08-17T02:25:27;6.03;;;3.58;;
21412;SDS011;10867;45.084;5.732;2023-08-17T02:28:00;6.72;;;3.75;;
21412;SDS011;10867;45.084;5.732;2023-08-17T02:30:26;6.38;;;3.40;;
21412;SDS011;10867;45.084;5.732;2023-08-17T02:32:53;6.80;;;3.17;;
21412;SDS011;10867;45.084;5.732;2023-08-17T02:35:19;5.28;;;3.17;;
21412;SDS011;10867;45.084;5.732;2023-08-17T02:37:45;3.90;;;3.20;;
21412;SDS011;10867;45.084;5.732;2023-08-17T02:40:11;5.55;;;3.25;;
21412;SDS011;10867;45.084;5.732;2023-08-17T02:42:37;5.67;;;3.03;;
21412;SDS011;10867;45.084;5.732;2023-08-17T02:45:05;4.90;;;3.03;;
21412;SDS011;10867;45.084;5.732;2023-08-17T02:47:31;5.88;;;3.22;;
21412;SDS011;10867;45.084;5.732;2023-08-17T02:49:58;6.80;;;3.38;;
21412;SDS011;10867;45.084;5.732;2023-08-17T02:52:24;5.83;;;3.20;;
21412;SDS011;10867;45.084;5.732;2023-08-17T02:54:50;5.30;;;3.08;;
21412;SDS011;10867;45.084;5.732;2023-08-17T02:57:16;5.60;;;3.22;;
21412;SDS011;10867;45.084;5.732;2023-08-17T02:59:43;4.53;;;3.20;;
21412;SDS011;10867;45.084;5.732;2023-08-17T03:02:09;5.63;;;3.13;;
21412;SDS011;10867;45.084;5.732;2023-08-17T03:04:35;3.60;;;2.70;;
21412;SDS011;10867;45.084;5.732;2023-08-17T03:07:02;5.20;;;3.20;;
21412;SDS011;10867;45.084;5.732;2023-08-17T03:09:28;6.95;;;3.15;;
21412;SDS011;10867;45.084;5.732;2023-08-17T03:11:54;5.82;;;2.95;;
21412;SDS011;10867;45.084;5.732;2023-08-17T03:14:20;7.95;;;3.33;;
21412;SDS011;10867;45.084;5.732;2023-08-17T03:16:46;7.93;;;3.00;;
21412;SDS011;10867;45.084;5.732;2023-08-17T03:19:12;5.65;;;3.35;;
21412;SDS011;10867;45.084;5.732;2023-08-17T03:21:38;6.05;;;3.13;;
21412;SDS011;10867;45.084;5.732;2023-08-17T03:24:05;4.72;;;3.10;;
21412;SDS011;10867;45.084;5.732;2023-08-17T03:26:31;6.72;;;3.35;;
21412;SDS011;10867;45.084;5.732;2023-08-17T03:28:57;5.72;;;3.00;;
21412;SDS011;10867;45.084;5.732;2023-08-17T03:31:23;4.97;;;3.00;;
21412;SDS011;10867;45.084;5.732;2023-08-17T03:33:49;4.95;;;2.97;;
21412;SDS011;10867;45.084;5.732;2023-08-17T03:36:16;3.67;;;2.70;;
21412;SDS011;10867;45.084;5.732;2023-08-17T03:38:42;4.78;;;3.10;;
21412;SDS011;10867;45.084;5.732;2023-08-17T03:41:08;5.13;;;2.70;;
21412;SDS011;10867;45.084;5.732;2023-08-17T03:43:34;6.35;;;2.80;;
21412;SDS011;10867;45.084;5.732;2023-08-17T03:46:01;5.53;;;2.83;;
21412;SDS011;10867;45.084;5.732;2023-08-17T03:48:27;5.55;;;2.88;;
21412;SDS011;10867;45.084;5.732;2023-08-17T03:50:54;6.75;;;3.60;;
21412;SDS011;10867;45.084;5.732;2023-08-17T03:53:20;8.52;;;5.70;;
21412;SDS011;10867;45.084;5.732;2023-08-17T03:55:47;7.38;;;5.40;;
21412;SDS011;10867;45.084;5.732;2023-08-17T03:58:13;8.30;;;7.00;;
21412;SDS011;10867;45.084;5.732;2023-08-17T04:00:39;7.03;;;5.25;;
21412;SDS011;10867;45.084;5.732;2023-08-17T04:03:05;8.18;;;4.63;;
21412;SDS011;10867;45.084;5.732;2023-08-17T04:05:32;6.65;;;4.07;;
21412;SDS011;10867;45.084;5.732;2023-08-17T04:07:58;6.75;;;3.80;;
21412;SDS011;10867;45.084;5.732;2023-08-17T04:10:27;4.78;;;3.50;;
21412;SDS011;10867;45.084;5.732;2023-08-17T04:12:54;5.15;;;3.65;;
21412;SDS011;10867;45.084;5.732;2023-08-17T04:15:20;6.57;;;3.72;;
21412;SDS011;10867;45.084;5.732;2023-08-17T04:17:46;5.97;;;4.13;;
21412;SDS011;10867;45.084;5.732;2023-08-17T04:20:12;6.38;;;3.85;;
21412;SDS011;10867;45.084;5.732;2023-08-17T04:22:38;7.57;;;3.85;;
21412;SDS011;10867;45.084;5.732;2023-08-17T04:25:04;6.35;;;4.03;;
21412;SDS011;10867;45.084;5.732;2023-08-17T04:27:31;6.40;;;3.85;;
21412;SDS011;10867;45.084;5.732;2023-08-17T04:29:57;7.45;;;4.20;;
21412;SDS011;10867;45.084;5.732;2023-08-17T04:32:23;6.45;;;4.93;;
21412;SDS011;10867;45.084;5.732;2023-08-17T04:34:49;7.38;;;4.22;;
21412;SDS011;10867;45.084;5.732;2023-08-17T04:37:15;5.25;;;3.28;;
21412;SDS011;10867;45.084;5.732;2023-08-17T04:39:41;5.90;;;3.97;;
21412;SDS011;10867;45.084;5.732;2023-08-17T04:42:08;6.67;;;4.00;;
21412;SDS011;10867;45.084;5.732;2023-08-17T04:44:34;5.65;;;3.83;;
21412;SDS011;10867;45.084;5.732;2023-08-17T04:47:04;5.13;;;3.72;;
21412;SDS011;10867;45.084;5.732;2023-08-17T04:49:31;5.32;;;3.70;;
21412;SDS011;10867;45.084;5.732;2023-08-17T04:51:57;6.55;;;3.95;;
21412;SDS011;10867;45.084;5.732;2023-08-17T04:54:23;5.00;;;3.88;;
21412;SDS011;10867;45.084;5.732;2023-08-17T04:56:50;4.43;;;3.22;;
21412;SDS011;10867;45.084;5.732;2023-08-17T05:16:09;5.37;;;3.60;;
21412;SDS011;10867;45.084;5.732;2023-08-17T05:25:49;6.22;;;3.10;;
21412;SDS011;10867;45.084;5.732;2023-08-17T05:34:22;7.18;;;3.25;;
21412;SDS011;10867;45.084;5.732;2023-08-17T05:40:07;6.33;;;3.20;;
21412;SDS011;10867;45.084;5.732;2023-08-17T05:42:49;5.68;;;3.30;;
21412;SDS011;10867;45.084;5.732;2023-08-17T05:45:58;5.88;;;3.67;;
21412;SDS011;10867;45.084;5.732;2023-08-17T05:48:32;8.27;;;3.65;;
21412;SDS011;10867;45.084;5.732;2023-08-17T05:50:58;5.50;;;3.20;;
21412;SDS011;10867;45.084;5.732;2023-08-17T05:53:24;6.67;;;3.40;;
21412;SDS011;10867;45.084;5.732;2023-08-17T05:55:50;5.57;;;3.40;;
21412;SDS011;10867;45.084;5.732;2023-08-17T05:58:17;7.95;;;3.35;;
21412;SDS011;10867;45.084;5.732;2023-08-17T06:00:43;6.82;;;3.17;;
21412;SDS011;10867;45.084;5.732;2023-08-17T06:03:09;5.38;;;3.20;;
21412;SDS011;10867;45.084;5.732;2023-08-17T06:05:35;10.55;;;3.33;;
21412;SDS011;10867;45.084;5.732;2023-08-17T06:28:24;6.15;;;3.00;;
21412;SDS011;10867;45.084;5.732;2023-08-17T06:31:33;4.85;;;2.60;;
21412;SDS011;10867;45.084;5.732;2023-08-17T06:34:11;5.60;;;2.80;;
21412;SDS011;10867;45.084;5.732;2023-08-17T06:37:01;5.60;;;2.72;;
21412;SDS011;10867;45.084;5.732;2023-08-17T06:40:11;4.82;;;3.03;;
